createdAt,value
2022-10-19T00:01:23.247Z,13.83
2022-10-19T00:03:51.517Z,16.53
2022-10-19T00:06:20.147Z,15.23
2022-10-19T00:08:47.544Z,10.10
2022-10-19T00:11:15.012Z,19.93
2022-10-19T00:13:42.387Z,8.23
2022-10-19T00:16:11.560Z,8.57
2022-10-19T00:18:41.050Z,9.73
2022-10-19T00:21:09.175Z,18.60
2022-10-19T00:23:36.701Z,14.53
2022-10-19T00:26:04.468Z,12.57
2022-10-19T00:28:32.178Z,13.43
2022-10-19T00:31:03.718Z,13.07
2022-10-19T00:33:31.134Z,11.70
2022-10-19T00:35:59.988Z,7.33
2022-10-19T00:38:27.642Z,12.93
2022-10-19T00:40:55.023Z,8.80
2022-10-19T00:43:23.945Z,13.43
2022-10-19T00:45:51.535Z,9.93
2022-10-19T00:48:20.629Z,12.53
2022-10-19T00:50:48.776Z,12.60
2022-10-19T00:53:17.695Z,7.50
2022-10-19T00:55:45.168Z,10.17
2022-10-19T00:58:12.880Z,20.77
2022-10-19T01:00:40.481Z,12.73
2022-10-19T01:03:09.051Z,10.47
2022-10-19T01:05:36.830Z,11.70
2022-10-19T01:08:04.428Z,14.50
2022-10-19T01:10:35.492Z,8.60
2022-10-19T01:13:08.900Z,9.23
2022-10-19T01:15:41.678Z,7.23
2022-10-19T01:18:16.108Z,17.33
2022-10-19T01:20:52.783Z,11.80
2022-10-19T01:23:31.584Z,17.57
2022-10-19T01:26:09.232Z,15.07
2022-10-19T01:28:44.629Z,11.10
2022-10-19T01:31:18.926Z,14.23
2022-10-19T01:33:48.383Z,12.23
2022-10-19T01:36:20.070Z,10.03
2022-10-19T01:38:51.263Z,9.17
2022-10-19T01:41:19.793Z,13.20
2022-10-19T01:43:49.825Z,9.90
2022-10-19T01:46:20.606Z,12.70
2022-10-19T01:48:51.170Z,8.87
2022-10-19T01:51:19.742Z,8.93
2022-10-19T01:53:50.020Z,9.70
2022-10-19T01:56:18.554Z,11.83
2022-10-19T01:58:46.710Z,9.20
2022-10-19T02:01:15.920Z,13.03
2022-10-19T02:03:44.915Z,10.90
2022-10-19T02:06:12.687Z,8.50
2022-10-19T02:08:42.800Z,13.70
2022-10-19T02:11:10.253Z,8.20
2022-10-19T02:13:38.698Z,6.10
2022-10-19T02:16:08.603Z,9.20
2022-10-19T02:18:38.975Z,11.23
2022-10-19T02:21:09.323Z,13.63
2022-10-19T02:23:37.153Z,9.50
2022-10-19T02:26:04.810Z,11.17
2022-10-19T02:28:32.339Z,10.93
2022-10-19T02:31:00.368Z,9.80
2022-10-19T02:33:28.361Z,6.90
2022-10-19T02:35:56.213Z,6.10
2022-10-19T02:38:25.292Z,7.90
2022-10-19T02:40:55.321Z,5.00
2022-10-19T02:43:23.236Z,9.20
2022-10-19T02:45:54.259Z,11.20
2022-10-19T02:48:23.773Z,9.00
2022-10-19T02:50:51.937Z,13.53
2022-10-19T02:53:19.787Z,10.23
2022-10-19T02:55:49.996Z,12.67
2022-10-19T02:58:17.413Z,8.83
2022-10-19T03:00:44.793Z,9.53
2022-10-19T03:03:12.203Z,10.13
2022-10-19T03:05:39.579Z,8.87
2022-10-19T03:08:06.941Z,6.27
2022-10-19T03:10:34.387Z,18.83
2022-10-19T03:13:03.110Z,10.10
2022-10-19T03:15:30.505Z,8.30
2022-10-19T03:17:57.879Z,9.80
2022-10-19T03:20:25.350Z,6.67
2022-10-19T03:25:25.064Z,12.43
2022-10-19T03:27:52.459Z,6.77
2022-10-19T03:30:21.178Z,7.60
2022-10-19T03:32:48.602Z,6.10
2022-10-19T03:35:16.042Z,7.93
2022-10-19T03:37:43.452Z,5.93
2022-10-19T03:40:11.127Z,10.23
2022-10-19T03:42:38.501Z,9.10
2022-10-19T03:45:06.344Z,6.07
2022-10-19T03:47:35.799Z,7.03
2022-10-19T03:50:05.632Z,10.70
2022-10-19T03:52:33.055Z,6.87
2022-10-19T03:55:00.435Z,7.67
2022-10-19T03:57:27.836Z,6.67
2022-10-19T03:59:55.189Z,5.17
2022-10-19T04:02:22.559Z,9.90
2022-10-19T04:04:51.317Z,9.33
2022-10-19T04:07:18.754Z,10.70
2022-10-19T04:09:46.242Z,7.90
2022-10-19T04:12:13.597Z,10.37
2022-10-19T04:14:56.252Z,7.73
2022-10-19T04:17:24.639Z,7.53
2022-10-19T04:19:53.422Z,7.23
2022-10-19T04:22:20.830Z,9.20
2022-10-19T04:24:48.209Z,10.40
2022-10-19T04:27:15.579Z,5.03
2022-10-19T04:29:42.977Z,5.23
2022-10-19T04:32:10.371Z,7.57
2022-10-19T04:34:39.981Z,8.10
2022-10-19T04:37:09.070Z,9.67
2022-10-19T04:39:39.457Z,12.50
2022-10-19T04:42:06.858Z,6.40
2022-10-19T04:44:34.233Z,5.17
2022-10-19T04:47:01.599Z,6.03
2022-10-19T04:49:28.986Z,5.60
2022-10-19T04:51:56.368Z,7.07
2022-10-19T04:54:25.271Z,5.13
2022-10-19T04:56:53.752Z,6.40
2022-10-19T04:59:21.195Z,7.50
2022-10-19T05:01:48.571Z,5.93
2022-10-19T05:04:15.973Z,6.80
2022-10-19T05:06:43.476Z,10.00
2022-10-19T05:09:10.876Z,6.93
2022-10-19T05:11:39.575Z,7.50
2022-10-19T05:14:06.984Z,9.90
2022-10-19T05:16:34.404Z,8.60
2022-10-19T05:19:01.996Z,8.23
2022-10-19T05:21:29.816Z,10.07
2022-10-19T05:23:57.729Z,10.60
2022-10-19T05:26:25.672Z,13.03
2022-10-19T05:28:56.817Z,10.10
2022-10-19T05:31:26.449Z,15.70
2022-10-19T05:33:53.876Z,10.40
2022-10-19T05:36:22.734Z,27.20
2022-10-19T05:38:52.580Z,25.97
2022-10-19T05:41:20.563Z,23.90
2022-10-19T05:43:48.611Z,25.40
2022-10-19T05:46:18.504Z,26.03
2022-10-19T05:48:46.292Z,30.67
2022-10-19T05:51:14.819Z,33.47
2022-10-19T05:53:42.389Z,23.20
2022-10-19T05:56:10.694Z,26.70
2022-10-19T05:58:38.061Z,19.97
2022-10-19T06:01:05.581Z,13.87
2022-10-19T06:03:34.284Z,12.93
2022-10-19T06:06:03.354Z,10.10
2022-10-19T06:08:30.787Z,7.97
2022-10-19T06:11:05.949Z,10.50
2022-10-19T06:13:33.365Z,6.37
2022-10-19T06:16:00.774Z,6.23
2022-10-19T06:18:28.165Z,11.43
2022-10-19T06:20:56.898Z,8.77
2022-10-19T06:23:24.251Z,8.53
2022-10-19T06:25:51.617Z,5.20
2022-10-19T06:28:18.996Z,6.70
2022-10-19T06:30:46.468Z,7.67
2022-10-19T06:33:13.966Z,5.37
2022-10-19T06:35:42.948Z,5.83
2022-10-19T06:38:13.721Z,10.70
2022-10-19T06:40:41.248Z,6.90
2022-10-19T06:43:08.624Z,12.80
2022-10-19T06:45:38.061Z,10.83
2022-10-19T06:48:07.668Z,7.43
2022-10-19T06:50:35.483Z,12.53
2022-10-19T06:53:02.894Z,7.20
2022-10-19T06:55:31.609Z,6.77
2022-10-19T06:58:01.578Z,7.93
2022-10-19T07:00:29.192Z,10.70
2022-10-19T07:02:56.738Z,4.50
2022-10-19T07:05:24.148Z,9.20
2022-10-19T07:07:51.590Z,5.97
2022-10-19T07:10:19.172Z,9.30
2022-10-19T07:12:47.911Z,6.13
2022-10-19T07:15:15.410Z,6.67
2022-10-19T07:17:42.807Z,4.47
2022-10-19T07:20:11.593Z,4.07
2022-10-19T07:22:39.118Z,8.33
2022-10-19T07:25:06.791Z,6.70
2022-10-19T07:27:37.859Z,5.70
2022-10-19T07:30:07.309Z,4.67
2022-10-19T07:32:34.843Z,3.83
2022-10-19T07:35:02.243Z,5.40
2022-10-19T07:37:29.896Z,7.23
2022-10-19T07:39:57.305Z,6.40
2022-10-19T07:42:24.713Z,4.00
2022-10-19T07:44:52.135Z,9.60
2022-10-19T07:47:20.872Z,9.33
2022-10-19T07:49:48.288Z,3.93
2022-10-19T07:52:15.670Z,5.10
2022-10-19T07:54:43.059Z,4.50
2022-10-19T07:57:11.988Z,8.30
2022-10-19T07:59:39.368Z,7.03
2022-10-19T08:02:07.765Z,6.10
2022-10-19T08:07:26.012Z,4.80
2022-10-19T08:09:54.316Z,8.30
2022-10-19T08:12:21.925Z,4.97
2022-10-19T08:14:49.281Z,6.00
2022-10-19T08:17:17.636Z,6.83
2022-10-19T08:19:47.287Z,9.60
2022-10-19T08:22:15.016Z,7.47
2022-10-19T08:24:42.450Z,10.70
2022-10-19T08:27:09.822Z,8.60
2022-10-19T08:29:37.199Z,6.17
2022-10-19T08:32:04.628Z,6.90
2022-10-19T08:34:33.191Z,9.53
2022-10-19T08:37:06.826Z,8.23
2022-10-19T08:39:42.379Z,6.73
2022-10-19T08:42:14.035Z,5.70
2022-10-19T08:44:53.415Z,10.83
2022-10-19T08:47:27.295Z,11.37
2022-10-19T08:49:54.852Z,8.20
2022-10-19T08:52:25.188Z,8.30
2022-10-19T08:54:54.301Z,6.30
2022-10-19T08:57:31.231Z,10.43
2022-10-19T09:00:01.626Z,8.27
2022-10-19T09:02:38.040Z,12.20
2022-10-19T09:05:10.677Z,11.80
2022-10-19T09:07:45.849Z,5.73
2022-10-19T09:10:19.196Z,6.83
2022-10-19T09:12:49.002Z,10.47
2022-10-19T09:15:18.843Z,9.27
2022-10-19T09:17:46.237Z,13.10
2022-10-19T09:20:17.914Z,6.73
2022-10-19T09:22:47.394Z,16.20
2022-10-19T09:25:15.971Z,8.30
2022-10-19T09:27:45.491Z,11.63
2022-10-19T09:30:16.696Z,9.73
2022-10-19T09:32:44.101Z,12.17
2022-10-19T09:35:19.401Z,7.90
2022-10-19T09:37:49.563Z,10.57
2022-10-19T09:40:19.024Z,8.00
2022-10-19T09:42:46.419Z,4.90
2022-10-19T09:45:18.404Z,4.47
2022-10-19T09:47:48.784Z,10.40
2022-10-19T09:50:19.209Z,5.60
2022-10-19T09:52:48.326Z,8.33
2022-10-19T09:55:26.527Z,10.10
2022-10-19T09:58:00.458Z,4.80
2022-10-19T10:00:32.838Z,5.53
2022-10-19T10:03:00.351Z,4.60
2022-10-19T10:05:31.870Z,6.60
2022-10-19T10:08:00.629Z,6.30
2022-10-19T10:10:30.562Z,4.63
2022-10-19T10:12:58.895Z,5.80
2022-10-19T10:15:27.509Z,4.97
2022-10-19T10:17:56.696Z,6.60
2022-10-19T10:20:27.690Z,4.87
2022-10-19T10:22:57.928Z,6.83
2022-10-19T10:25:28.408Z,5.27
2022-10-19T10:27:58.192Z,3.87
2022-10-19T10:30:25.875Z,7.40
2022-10-19T10:32:54.795Z,4.60
2022-10-19T10:35:24.176Z,5.43
2022-10-19T10:37:51.952Z,7.70
2022-10-19T10:40:23.517Z,5.83
2022-10-19T10:42:53.543Z,5.37
2022-10-19T10:45:23.640Z,5.70
2022-10-19T10:47:51.560Z,5.23
2022-10-19T10:50:21.488Z,5.23
2022-10-19T10:52:59.643Z,6.70
2022-10-19T10:55:27.597Z,9.70
2022-10-19T10:58:06.850Z,3.37
2022-10-19T11:00:35.402Z,5.87
2022-10-19T11:03:07.692Z,7.30
2022-10-19T11:05:37.346Z,9.43
2022-10-19T11:08:08.005Z,5.10
2022-10-19T11:10:37.374Z,8.10
2022-10-19T11:13:11.724Z,3.30
2022-10-19T11:15:45.394Z,5.20
2022-10-19T11:18:15.796Z,6.93
2022-10-19T11:20:45.899Z,3.43
2022-10-19T11:23:16.104Z,6.20
2022-10-19T11:25:49.407Z,3.43
2022-10-19T11:28:21.976Z,4.40
2022-10-19T11:30:54.570Z,8.13
2022-10-19T11:33:26.010Z,5.40
2022-10-19T11:35:54.062Z,4.60
2022-10-19T11:38:37.776Z,11.60
2022-10-19T11:41:17.712Z,6.43
2022-10-19T11:43:50.629Z,8.60
2022-10-19T11:46:21.825Z,5.40
2022-10-19T11:49:01.592Z,7.53
2022-10-19T11:51:33.429Z,6.93
2022-10-19T11:54:11.175Z,12.53
2022-10-19T11:57:02.475Z,6.00
2022-10-19T11:59:41.377Z,4.67
2022-10-19T12:02:20.541Z,6.60
2022-10-19T12:04:52.429Z,6.50
2022-10-19T12:07:33.029Z,6.97
2022-10-19T12:10:04.369Z,5.30
2022-10-19T12:12:34.433Z,4.20
2022-10-19T12:15:06.487Z,4.87
2022-10-19T12:17:37.026Z,9.00
2022-10-19T12:20:07.633Z,5.33
2022-10-19T12:22:37.256Z,5.70
2022-10-19T12:25:04.975Z,4.17
2022-10-19T12:27:35.027Z,9.13
2022-10-19T12:30:05.771Z,8.13
2022-10-19T12:32:37.475Z,4.37
2022-10-19T12:35:09.383Z,5.03
2022-10-19T12:37:41.289Z,3.43
2022-10-19T12:40:12.358Z,3.67
2022-10-19T12:42:44.316Z,7.23
2022-10-19T12:45:20.068Z,4.63
2022-10-19T12:48:06.191Z,5.77
2022-10-19T12:50:48.490Z,8.30
2022-10-19T12:53:23.961Z,4.70
2022-10-19T12:55:59.162Z,6.70
2022-10-19T12:58:26.623Z,8.50
2022-10-19T13:01:02.938Z,10.00
2022-10-19T13:03:32.095Z,5.27
2022-10-19T13:06:00.218Z,14.77
2022-10-19T13:08:29.868Z,8.27
2022-10-19T13:11:08.305Z,4.33
2022-10-19T13:13:51.655Z,10.23
2022-10-19T13:16:49.247Z,5.87
2022-10-19T13:19:22.342Z,7.73
2022-10-19T13:21:54.080Z,3.13
2022-10-19T13:24:36.351Z,3.80
2022-10-19T13:27:22.334Z,6.77
2022-10-19T13:29:49.761Z,4.40
2022-10-19T13:32:33.701Z,5.33
2022-10-19T13:35:16.217Z,3.90
2022-10-19T13:37:45.659Z,4.43
2022-10-19T13:40:23.687Z,7.33
2022-10-19T13:42:58.547Z,5.80
2022-10-19T13:45:26.098Z,7.23
2022-10-19T13:47:57.863Z,5.17
2022-10-19T13:50:35.222Z,3.00
2022-10-19T13:53:08.475Z,5.43
2022-10-19T13:55:54.334Z,6.70
2022-10-19T13:58:56.420Z,6.30
2022-10-19T14:01:28.053Z,6.67
2022-10-19T14:04:01.891Z,5.33
2022-10-19T14:06:33.996Z,8.87
2022-10-19T14:09:14.223Z,4.90
2022-10-19T14:11:42.225Z,5.60
2022-10-19T14:14:16.775Z,8.03
2022-10-19T14:16:51.817Z,6.37
2022-10-19T14:19:26.676Z,7.63
2022-10-19T14:21:55.262Z,5.37
2022-10-19T14:24:27.426Z,7.30
2022-10-19T14:26:55.500Z,4.13
2022-10-19T14:29:22.973Z,8.90
2022-10-19T14:31:50.428Z,7.60
2022-10-19T14:34:17.855Z,5.27
2022-10-19T14:36:47.104Z,6.47
2022-10-19T14:39:25.010Z,6.23
2022-10-19T14:41:54.610Z,4.53
2022-10-19T14:44:28.763Z,5.13
2022-10-19T14:46:56.360Z,5.67
2022-10-19T14:49:23.828Z,10.83
2022-10-19T14:51:52.974Z,5.53
2022-10-19T14:54:24.131Z,13.57
2022-10-19T14:56:54.559Z,6.67
2022-10-19T14:59:25.404Z,9.40
2022-10-19T15:01:53.944Z,5.03
2022-10-19T15:04:22.503Z,5.40
2022-10-19T15:06:49.983Z,4.30
2022-10-19T15:09:30.460Z,7.13
2022-10-19T15:12:11.087Z,3.30
2022-10-19T15:14:39.051Z,6.50
2022-10-19T15:17:21.371Z,8.40
2022-10-19T15:19:48.803Z,5.67
2022-10-19T15:22:17.711Z,2.87
2022-10-19T15:24:58.968Z,6.53
2022-10-19T15:27:31.936Z,3.83
2022-10-19T15:30:00.301Z,7.23
2022-10-19T15:32:31.831Z,4.43
2022-10-19T15:34:59.289Z,5.57
2022-10-19T15:39:59.315Z,7.13
2022-10-19T15:42:37.298Z,4.73
2022-10-19T15:45:05.545Z,5.97
2022-10-19T15:47:33.225Z,5.50
2022-10-19T15:50:01.609Z,3.90
2022-10-19T15:52:29.591Z,5.53
2022-10-19T15:54:57.575Z,5.07
2022-10-19T15:57:26.396Z,3.00
2022-10-19T15:59:55.704Z,6.43
2022-10-19T16:02:25.032Z,6.67
2022-10-19T16:04:53.364Z,3.53
2022-10-19T16:07:24.319Z,6.30
2022-10-19T16:09:51.687Z,5.63
2022-10-19T16:12:19.057Z,4.57
2022-10-19T16:14:46.490Z,4.03
2022-10-19T16:17:15.730Z,6.80
2022-10-19T16:19:43.135Z,7.53
2022-10-19T16:22:10.525Z,4.57
2022-10-19T16:24:37.951Z,5.77
2022-10-19T16:27:05.804Z,4.67
2022-10-19T16:29:33.196Z,3.10
2022-10-19T16:32:01.089Z,5.87
2022-10-19T16:34:29.822Z,9.60
2022-10-19T16:36:57.222Z,5.03
2022-10-19T16:39:25.553Z,8.30
2022-10-19T16:41:52.984Z,8.03
2022-10-19T16:44:20.424Z,4.57
2022-10-19T16:46:47.870Z,6.80
2022-10-19T16:49:15.297Z,7.13
2022-10-19T16:51:44.067Z,4.57
2022-10-19T16:54:12.090Z,6.77
2022-10-19T16:56:44.512Z,10.33
2022-10-19T16:59:12.992Z,11.23
2022-10-19T17:01:40.543Z,7.33
2022-10-19T17:04:08.237Z,6.13
2022-10-19T17:06:35.647Z,10.50
2022-10-19T17:11:52.320Z,6.77
2022-10-19T17:14:19.766Z,5.03
2022-10-19T17:16:47.159Z,4.00
2022-10-19T17:19:14.551Z,8.07
2022-10-19T17:21:42.348Z,5.07
2022-10-19T17:24:18.418Z,5.03
2022-10-19T17:26:49.280Z,4.77
2022-10-19T17:29:16.709Z,6.73
2022-10-19T17:31:44.508Z,5.63
2022-10-19T17:34:12.160Z,5.97
2022-10-19T17:39:15.221Z,8.67
2022-10-19T17:41:42.799Z,5.70
2022-10-19T17:44:10.247Z,8.37
2022-10-19T17:46:37.636Z,5.97
2022-10-19T17:49:05.498Z,5.90
2022-10-19T17:51:33.954Z,5.07
2022-10-19T17:54:02.698Z,5.90
2022-10-19T17:56:31.551Z,8.70
2022-10-19T17:58:59.037Z,8.43
2022-10-19T18:01:26.793Z,8.57
2022-10-19T18:03:54.182Z,7.37
2022-10-19T18:06:23.169Z,6.60
2022-10-19T18:08:51.855Z,5.47
2022-10-19T18:11:20.054Z,6.90
2022-10-19T18:13:49.267Z,7.93
2022-10-19T18:16:17.966Z,6.10
2022-10-19T18:18:48.483Z,15.80
2022-10-19T18:21:16.924Z,12.40
2022-10-19T18:23:44.298Z,12.20
2022-10-19T18:26:13.461Z,8.67
2022-10-19T18:28:41.220Z,10.80
2022-10-19T18:31:10.769Z,9.70
2022-10-19T18:33:38.644Z,7.10
2022-10-19T18:36:07.185Z,6.23
2022-10-19T18:38:34.727Z,10.83
2022-10-19T18:41:02.502Z,5.00
2022-10-19T18:43:30.016Z,19.50
2022-10-19T18:45:58.263Z,16.17
2022-10-19T18:48:27.603Z,6.90
2022-10-19T18:50:55.183Z,13.40
2022-10-19T18:53:23.017Z,9.33
2022-10-19T18:55:57.716Z,9.40
2022-10-19T18:58:25.290Z,6.73
2022-10-19T19:01:02.606Z,4.07
2022-10-19T19:03:31.371Z,10.10
2022-10-19T19:05:59.927Z,12.10
2022-10-19T19:08:27.484Z,9.10
2022-10-19T19:10:54.990Z,7.73
2022-10-19T19:13:22.400Z,7.90
2022-10-19T19:15:57.053Z,7.87
2022-10-19T19:18:24.457Z,10.10
2022-10-19T19:20:53.234Z,10.00
2022-10-19T19:23:20.633Z,3.50
2022-10-19T19:25:48.050Z,7.70
2022-10-19T19:28:15.499Z,4.30
2022-10-19T19:30:43.412Z,5.07
2022-10-19T19:33:10.838Z,8.23
2022-10-19T19:35:42.589Z,6.90
2022-10-19T19:38:11.782Z,6.63
2022-10-19T19:40:40.284Z,7.30
2022-10-19T19:43:07.738Z,7.83
2022-10-19T19:45:35.364Z,4.67
2022-10-19T19:48:02.770Z,6.63
2022-10-19T19:50:30.167Z,11.67
2022-10-19T19:52:57.547Z,7.93
2022-10-19T19:55:26.275Z,5.60
2022-10-19T19:57:54.324Z,7.30
2022-10-19T20:00:22.032Z,5.33
2022-10-19T20:02:52.083Z,5.53
2022-10-19T20:05:19.491Z,3.43
2022-10-19T20:07:46.876Z,5.10
2022-10-19T20:10:15.986Z,6.17
2022-10-19T20:12:44.817Z,5.37
2022-10-19T20:15:12.604Z,4.30
2022-10-19T20:17:40.108Z,4.27
2022-10-19T20:20:08.738Z,5.53
2022-10-19T20:22:36.335Z,5.80
2022-10-19T20:25:03.771Z,5.33
2022-10-19T20:27:31.541Z,3.73
2022-10-19T20:30:00.264Z,7.53
2022-10-19T20:32:27.710Z,8.47
2022-10-19T20:34:55.358Z,5.07
2022-10-19T20:37:22.908Z,8.10
2022-10-19T20:39:50.614Z,8.53
2022-10-19T20:42:18.905Z,5.53
2022-10-19T20:44:46.303Z,3.67
2022-10-19T20:47:15.195Z,4.20
2022-10-19T20:49:42.547Z,8.53
2022-10-19T20:52:10.018Z,7.00
2022-10-19T20:54:37.428Z,8.43
2022-10-19T20:57:04.875Z,7.93
2022-10-19T20:59:33.306Z,8.77
2022-10-19T21:02:00.728Z,4.20
2022-10-19T21:04:29.551Z,6.20
2022-10-19T21:06:57.244Z,7.00
2022-10-19T21:09:25.884Z,4.30
2022-10-19T21:11:53.549Z,4.30
2022-10-19T21:14:25.202Z,5.37
2022-10-19T21:16:56.413Z,7.40
2022-10-19T21:19:25.192Z,5.03
2022-10-19T21:21:56.092Z,9.90
2022-10-19T21:24:24.464Z,10.13
2022-10-19T21:29:24.377Z,8.17
2022-10-19T21:31:53.236Z,7.20
2022-10-19T21:34:23.339Z,7.40
2022-10-19T21:36:50.975Z,7.60
2022-10-19T21:39:19.772Z,5.17
2022-10-19T21:41:47.558Z,4.53
2022-10-19T21:44:15.236Z,9.43
2022-10-19T21:46:43.874Z,5.37
2022-10-19T21:49:11.924Z,5.13
2022-10-19T21:51:40.956Z,8.50
2022-10-19T21:54:08.929Z,7.63
2022-10-19T21:56:37.682Z,7.73
2022-10-19T21:59:05.469Z,9.40
2022-10-19T22:01:38.519Z,8.53
2022-10-19T22:04:09.444Z,5.00
2022-10-19T22:06:37.362Z,4.97
2022-10-19T22:09:05.964Z,11.30
2022-10-19T22:11:33.430Z,7.87
2022-10-19T22:14:02.990Z,6.23
2022-10-19T22:16:30.936Z,5.80
2022-10-19T22:18:58.389Z,6.23
2022-10-19T22:21:27.071Z,5.93
2022-10-19T22:23:55.986Z,7.00
2022-10-19T22:26:24.803Z,10.13
2022-10-19T22:28:52.238Z,6.60
2022-10-19T22:31:21.176Z,10.87
2022-10-19T22:33:48.572Z,7.93
2022-10-19T22:36:16.091Z,9.90
2022-10-19T22:38:43.458Z,11.50
2022-10-19T22:41:10.902Z,8.00
2022-10-19T22:43:38.323Z,10.37
2022-10-19T22:46:05.700Z,10.60
2022-10-19T22:48:34.472Z,8.00
2022-10-19T22:51:01.852Z,8.03
2022-10-19T22:53:29.181Z,9.73
2022-10-19T22:55:56.535Z,10.20
2022-10-19T22:58:23.937Z,8.67
2022-10-19T23:01:02.003Z,10.00
2022-10-19T23:03:29.409Z,9.10
2022-10-19T23:05:58.123Z,8.53
2022-10-19T23:08:25.883Z,11.83
2022-10-19T23:10:53.303Z,20.57
2022-10-19T23:13:20.717Z,6.10
2022-10-19T23:15:48.145Z,15.70
2022-10-19T23:18:16.151Z,8.33
2022-10-19T23:20:43.932Z,11.47
2022-10-19T23:23:12.693Z,7.83
2022-10-19T23:25:40.078Z,12.60
2022-10-19T23:28:07.469Z,9.10
2022-10-19T23:30:34.835Z,7.60
2022-10-19T23:33:02.240Z,10.67
2022-10-19T23:35:29.739Z,8.47
2022-10-19T23:37:57.159Z,11.33
2022-10-19T23:40:25.951Z,11.20
2022-10-19T23:42:53.335Z,12.30
2022-10-19T23:45:20.738Z,12.77
2022-10-19T23:47:48.098Z,8.17
2022-10-19T23:50:15.592Z,14.30
2022-10-19T23:52:42.978Z,12.30
2022-10-19T23:55:10.437Z,11.10
2022-10-19T23:57:39.319Z,9.30
